createdAt,value
2018-04-27T06:16:24.019Z,6.40
2018-04-27T06:18:53.081Z,9.57
2018-04-27T06:21:20.622Z,8.57
2018-04-27T06:23:48.142Z,10.30
2018-04-27T06:26:15.682Z,10.33
2018-04-27T06:28:49.676Z,12.33
2018-04-27T06:31:17.407Z,8.30
2018-04-27T06:33:45.681Z,8.47
2018-04-27T06:36:13.193Z,6.83
2018-04-27T06:38:40.705Z,7.23
2018-04-27T06:41:08.971Z,7.23
2018-04-27T06:43:36.535Z,11.40
2018-04-27T06:46:04.881Z,7.10
2018-04-27T06:48:32.382Z,7.47
2018-04-27T06:50:59.925Z,9.30
2018-04-27T06:53:27.534Z,6.70
2018-04-27T06:55:55.015Z,7.27
2018-04-27T06:58:22.506Z,7.80
2018-04-27T07:00:50.767Z,6.10
2018-04-27T07:03:18.318Z,10.33
2018-04-27T07:05:45.829Z,13.20
2018-04-27T07:08:13.366Z,7.37
2018-04-27T07:10:41.798Z,8.77
2018-04-27T07:13:09.323Z,10.23
2018-04-27T07:15:36.892Z,10.57
2018-04-27T07:18:04.414Z,11.77
2018-04-27T07:20:31.909Z,8.37
2018-04-27T07:22:59.483Z,10.60
2018-04-27T07:25:26.991Z,6.30
2018-04-27T07:27:55.285Z,9.43
2018-04-27T07:30:23.668Z,9.77
2018-04-27T07:32:51.152Z,10.77
2018-04-27T07:35:19.197Z,8.27
2018-04-27T07:37:47.735Z,8.30
2018-04-27T07:40:15.239Z,7.57
2018-04-27T07:42:43.507Z,6.97
2018-04-27T07:45:11.233Z,11.40
2018-04-27T07:47:38.745Z,8.27
2018-04-27T07:50:06.305Z,7.27
2018-04-27T07:52:33.853Z,7.87
2018-04-27T07:55:02.603Z,9.10
2018-04-27T07:57:30.405Z,11.83
2018-04-27T07:59:57.921Z,9.63
2018-04-27T08:02:25.413Z,9.30
2018-04-27T08:04:53.687Z,15.87
2018-04-27T08:07:22.004Z,9.93
2018-04-27T08:09:49.487Z,13.30
2018-04-27T08:12:16.985Z,10.93
2018-04-27T08:14:44.491Z,9.07
2018-04-27T08:17:12.025Z,13.53
2018-04-27T08:19:39.612Z,7.73
2018-04-27T08:22:07.218Z,10.17
2018-04-27T08:24:34.757Z,12.03
2018-04-27T08:27:02.856Z,12.57
2018-04-27T08:29:30.448Z,8.00
2018-04-27T08:31:57.918Z,10.80
2018-04-27T08:34:25.466Z,8.97
2018-04-27T08:36:52.933Z,9.53
2018-04-27T08:39:20.445Z,8.13
2018-04-27T08:41:47.971Z,5.93
2018-04-27T08:44:15.488Z,9.30
2018-04-27T08:46:43.372Z,6.60
2018-04-27T08:49:10.939Z,6.97
2018-04-27T08:51:38.419Z,8.03
2018-04-27T08:54:05.972Z,9.97
2018-04-27T08:56:34.221Z,11.03
2018-04-27T08:59:01.728Z,8.40
2018-04-27T09:01:29.225Z,7.13
2018-04-27T09:03:56.745Z,6.90
2018-04-27T09:06:24.333Z,4.10
2018-04-27T09:08:51.793Z,5.63
2018-04-27T09:11:20.075Z,7.47
2018-04-27T09:13:47.627Z,9.37
2018-04-27T09:16:15.926Z,9.60
2018-04-27T09:18:43.414Z,6.67
2018-04-27T09:21:10.909Z,8.33
2018-04-27T09:23:38.427Z,6.87
2018-04-27T09:26:06.082Z,12.67
2018-04-27T09:28:33.561Z,6.37
2018-04-27T09:31:01.061Z,7.03
2018-04-27T09:33:29.139Z,11.93
2018-04-27T09:35:56.680Z,9.27
2018-04-27T09:38:24.351Z,8.03
2018-04-27T09:40:52.005Z,7.33
2018-04-27T09:43:20.287Z,8.33
2018-04-27T09:45:47.794Z,9.37
2018-04-27T09:48:15.491Z,9.43
2018-04-27T09:50:43.000Z,10.43
2018-04-27T09:53:11.276Z,7.50
2018-04-27T09:55:40.355Z,8.93
2018-04-27T09:58:07.863Z,9.00
2018-04-27T10:00:35.392Z,9.10
2018-04-27T10:03:03.641Z,8.90
2018-04-27T10:05:31.163Z,6.37
2018-04-27T10:07:58.665Z,11.87
2018-04-27T10:10:26.973Z,5.93
2018-04-27T10:12:54.480Z,11.33
2018-04-27T10:15:21.958Z,10.77
2018-04-27T10:17:50.464Z,7.87
2018-04-27T10:20:17.983Z,6.50
2018-04-27T10:22:46.290Z,6.97
2018-04-27T10:25:13.800Z,9.73
2018-04-27T10:27:41.285Z,10.23
2018-04-27T10:30:09.583Z,10.33
2018-04-27T10:32:37.098Z,8.37
2018-04-27T10:35:04.798Z,9.80
2018-04-27T10:37:32.409Z,9.90
2018-04-27T10:39:59.913Z,8.23
2018-04-27T10:42:28.287Z,5.77
2018-04-27T10:44:56.579Z,6.83
2018-04-27T10:47:24.833Z,8.00
2018-04-27T10:49:53.075Z,7.40
2018-04-27T10:52:20.580Z,9.90
2018-04-27T10:54:48.831Z,7.83
2018-04-27T10:57:16.439Z,9.10
2018-04-27T10:59:43.967Z,12.53
2018-04-27T11:02:12.206Z,9.57
2018-04-27T11:04:39.715Z,7.83
2018-04-27T11:07:08.603Z,6.37
2018-04-27T11:09:36.987Z,8.77
2018-04-27T11:12:05.907Z,9.47
2018-04-27T11:14:33.476Z,8.93
2018-04-27T11:17:01.041Z,5.40
2018-04-27T11:19:29.467Z,4.77
2018-04-27T11:21:57.692Z,7.07
2018-04-27T11:24:25.583Z,11.27
2018-04-27T11:26:53.133Z,10.27
2018-04-27T11:29:20.768Z,7.30
2018-04-27T11:31:48.330Z,5.80
2018-04-27T11:34:15.847Z,10.23
2018-04-27T11:36:44.397Z,9.47
2018-04-27T11:39:12.863Z,3.57
2018-04-27T11:41:40.371Z,4.90
2018-04-27T11:44:08.664Z,8.10
2018-04-27T11:46:37.261Z,8.83
2018-04-27T11:49:04.802Z,5.63
2018-04-27T11:51:33.400Z,6.77
2018-04-27T11:54:01.701Z,7.77
2018-04-27T11:56:29.265Z,6.93
2018-04-27T11:58:57.030Z,7.60
2018-04-27T12:01:25.233Z,6.70
2018-04-27T12:03:52.715Z,5.13
2018-04-27T12:06:26.593Z,5.93
2018-04-27T12:08:55.838Z,8.67
2018-04-27T12:11:23.407Z,7.47
2018-04-27T12:13:51.083Z,6.80
2018-04-27T12:16:19.233Z,8.30
2018-04-27T12:18:48.739Z,10.73
2018-04-27T12:21:17.034Z,5.20
2018-04-27T12:23:45.456Z,6.57
2018-04-27T12:26:13.019Z,5.83
2018-04-27T12:28:40.545Z,5.83
2018-04-27T12:31:08.083Z,4.60
2018-04-27T12:33:35.686Z,4.60
2018-04-27T12:36:03.218Z,7.30
2018-04-27T12:38:30.717Z,5.53
2018-04-27T12:40:58.209Z,6.57
2018-04-27T12:43:26.461Z,6.73
2018-04-27T12:45:53.959Z,8.50
2018-04-27T12:48:22.907Z,8.27
2018-04-27T12:50:50.531Z,6.17
2018-04-27T12:53:18.027Z,6.63
2018-04-27T12:55:45.529Z,6.57
2018-04-27T12:58:13.036Z,5.37
2018-04-27T13:00:41.143Z,3.77
2018-04-27T13:03:09.478Z,5.40
2018-04-27T13:05:36.963Z,7.20
2018-04-27T13:08:04.439Z,3.60
2018-04-27T13:10:32.710Z,5.57
2018-04-27T13:13:01.316Z,9.23
2018-04-27T13:15:29.635Z,4.60
2018-04-27T13:17:57.132Z,5.73
2018-04-27T13:20:24.657Z,4.53
2018-04-27T13:22:52.297Z,5.27
2018-04-27T13:25:19.817Z,6.03
2018-04-27T13:27:48.101Z,8.27
2018-04-27T13:30:15.756Z,6.30
2018-04-27T13:32:44.039Z,8.37
2018-04-27T13:35:12.501Z,4.80
2018-04-27T13:37:40.162Z,7.17
2018-04-27T13:40:08.454Z,6.57
2018-04-27T13:42:35.975Z,6.03
2018-04-27T13:45:04.279Z,5.07
2018-04-27T13:47:32.558Z,8.07
2018-04-27T13:50:00.823Z,4.77
2018-04-27T13:52:28.382Z,6.30
2018-04-27T13:54:55.919Z,6.43
2018-04-27T13:57:23.570Z,5.47
2018-04-27T13:59:51.027Z,4.33
2018-04-27T14:02:19.248Z,4.67
2018-04-27T14:04:47.547Z,4.63
2018-04-27T14:07:15.083Z,5.50
2018-04-27T14:09:42.662Z,4.30
2018-04-27T14:12:10.145Z,3.43
2018-04-27T14:14:37.645Z,4.37
2018-04-27T14:17:06.050Z,5.20
2018-04-27T14:19:34.307Z,4.37
2018-04-27T14:22:01.904Z,5.90
2018-04-27T14:24:29.451Z,5.87
2018-04-27T14:26:57.831Z,6.57
2018-04-27T14:29:25.279Z,6.07
2018-04-27T14:31:52.903Z,4.27
2018-04-27T14:34:20.415Z,5.67
2018-04-27T14:36:48.132Z,8.37
2018-04-27T14:39:15.675Z,6.93
2018-04-27T14:41:43.188Z,7.37
2018-04-27T14:44:11.846Z,4.50
2018-04-27T14:46:39.381Z,4.90
2018-04-27T14:49:06.882Z,5.00
2018-04-27T14:51:35.159Z,3.83
2018-04-27T14:54:03.595Z,6.07
2018-04-27T14:56:31.096Z,3.37
2018-04-27T14:58:59.415Z,5.23
2018-04-27T15:01:27.024Z,4.33
2018-04-27T15:03:54.531Z,5.30
2018-04-27T15:06:22.077Z,6.67
2018-04-27T15:08:49.652Z,5.03
2018-04-27T15:11:17.995Z,7.80
2018-04-27T15:13:46.224Z,3.50
2018-04-27T15:16:13.736Z,5.43
2018-04-27T15:18:41.974Z,5.07
2018-04-27T15:21:09.568Z,6.07
2018-04-27T15:23:37.837Z,6.10
2018-04-27T15:26:05.340Z,4.57
2018-04-27T15:28:33.423Z,7.40
2018-04-27T15:31:01.013Z,7.03
2018-04-27T15:33:28.515Z,4.20
2018-04-27T15:35:56.244Z,7.40
2018-04-27T15:38:23.715Z,6.17
2018-04-27T15:40:51.981Z,7.50
2018-04-27T15:43:19.524Z,5.27
2018-04-27T15:45:47.108Z,6.57
2018-04-27T15:48:15.356Z,6.53
2018-04-27T15:50:42.839Z,5.40
2018-04-27T15:53:11.109Z,4.73
2018-04-27T15:55:39.511Z,10.00
2018-04-27T15:58:07.756Z,5.37
2018-04-27T16:00:35.692Z,3.87
2018-04-27T16:03:03.190Z,5.77
2018-04-27T16:05:30.762Z,6.27
2018-04-27T16:07:58.278Z,10.70
2018-04-27T16:10:25.781Z,5.00
2018-04-27T16:15:52.341Z,3.87
2018-04-27T16:18:20.608Z,6.53
2018-04-27T16:20:48.083Z,6.30
2018-04-27T16:23:16.347Z,6.63
2018-04-27T16:25:44.768Z,5.23
2018-04-27T16:28:12.296Z,4.97
2018-04-27T16:30:40.554Z,6.43
2018-04-27T17:05:24.106Z,6.73
2018-04-27T17:08:17.566Z,5.60
2018-04-27T17:10:45.128Z,7.43
2018-04-27T17:13:52.726Z,4.83
2018-04-27T17:16:21.271Z,6.83
2018-04-27T17:18:49.685Z,8.13
2018-04-27T17:21:18.170Z,6.27
2018-04-27T17:23:46.760Z,6.97
2018-04-27T17:26:15.340Z,6.40
2018-04-27T17:28:43.762Z,7.70
2018-04-27T17:31:12.343Z,8.67
2018-04-27T17:33:40.629Z,8.00
2018-04-27T17:36:08.928Z,4.90
2018-04-27T17:38:37.237Z,5.17
2018-04-27T17:41:05.557Z,4.83
2018-04-27T17:43:33.966Z,8.90
2018-04-27T17:46:02.177Z,9.17
2018-04-27T17:48:30.473Z,10.43
2018-04-27T17:50:59.588Z,5.40
2018-04-27T17:53:28.713Z,5.67
2018-04-27T17:55:57.716Z,5.93
2018-04-27T17:58:26.044Z,5.47
2018-04-27T18:00:55.115Z,6.20
2018-04-27T18:03:23.424Z,9.93
2018-04-27T18:05:52.462Z,6.43
2018-04-27T18:08:20.777Z,8.33
2018-04-27T18:10:49.834Z,7.70
2018-04-27T18:13:18.141Z,9.63
2018-04-27T18:15:46.463Z,7.67
2018-04-27T18:18:14.873Z,6.80
2018-04-27T18:20:43.072Z,7.87
2018-04-27T18:23:11.359Z,11.83
2018-04-27T18:25:40.450Z,8.57
2018-04-27T18:28:08.692Z,7.70
2018-04-27T18:30:37.057Z,11.63
2018-04-27T18:33:05.349Z,12.83
2018-04-27T18:35:33.663Z,12.73
2018-04-27T18:38:01.933Z,7.50
2018-04-27T18:40:30.950Z,8.70
2018-04-27T18:42:59.288Z,9.80
2018-04-27T18:45:27.661Z,8.00
2018-04-27T18:47:55.929Z,12.37
2018-04-27T18:50:24.309Z,7.10
2018-04-27T18:52:52.587Z,8.70
2018-04-27T18:55:20.888Z,10.70
2018-04-27T18:57:49.212Z,11.33
2018-04-27T19:00:18.413Z,7.10
2018-04-27T19:02:46.693Z,7.70
2018-04-27T19:05:15.011Z,7.50
2018-04-27T19:07:43.348Z,11.13
2018-04-27T19:10:11.676Z,7.73
2018-04-27T19:12:40.057Z,9.43
2018-04-27T19:15:08.464Z,10.83
2018-04-27T19:17:36.918Z,9.83
2018-04-27T19:20:05.819Z,10.43
2018-04-27T19:22:34.040Z,10.13
2018-04-27T19:25:03.166Z,11.53
2018-04-27T19:27:31.471Z,9.80
2018-04-27T19:30:00.488Z,7.90
2018-04-27T19:32:28.961Z,12.97
2018-04-27T19:34:57.251Z,8.87
2018-04-27T19:37:25.666Z,8.53
2018-04-27T19:39:53.931Z,11.60
2018-04-27T19:42:22.260Z,13.30
2018-04-27T19:44:51.318Z,10.03
2018-04-27T19:47:19.605Z,10.13
2018-04-27T19:49:47.932Z,9.27
2018-04-27T19:52:16.243Z,12.67
2018-04-27T19:54:44.570Z,8.10
2018-04-27T19:57:13.637Z,8.63
2018-04-27T19:59:41.955Z,7.27
2018-04-27T20:02:10.334Z,9.03
2018-04-27T20:04:38.674Z,9.60
2018-04-27T20:07:07.035Z,9.00
2018-04-27T20:09:35.615Z,9.23
2018-04-27T20:12:04.640Z,9.93
2018-04-27T20:14:36.792Z,9.37
2018-04-27T20:17:05.246Z,9.27
2018-04-27T20:19:43.060Z,10.57
2018-04-27T20:22:23.954Z,6.63
2018-04-27T20:24:53.740Z,9.40
2018-04-27T20:27:22.228Z,8.03
2018-04-27T20:29:55.465Z,8.00
2018-04-27T20:32:23.971Z,11.10
2018-04-27T20:34:52.318Z,9.47
2018-04-27T20:37:20.636Z,6.43
2018-04-27T20:39:49.745Z,8.87
2018-04-27T20:42:18.365Z,8.20
2018-04-27T20:44:47.560Z,9.10
2018-04-27T20:47:15.945Z,7.17
2018-04-27T20:49:44.323Z,7.33
2018-04-27T20:52:12.791Z,8.47
2018-04-27T20:54:41.161Z,15.10
2018-04-27T20:57:09.467Z,11.07
2018-04-27T20:59:37.745Z,10.97
2018-04-27T21:02:06.218Z,10.67
2018-04-27T21:04:34.565Z,10.60
2018-04-27T21:07:02.941Z,9.03
2018-04-27T21:09:31.443Z,13.63
2018-04-27T21:11:59.833Z,10.07
2018-04-27T21:14:28.212Z,11.40
2018-04-27T21:16:56.597Z,10.57
2018-04-27T21:19:24.940Z,17.33
2018-04-27T21:21:53.413Z,9.67
2018-04-27T21:24:21.737Z,13.43
2018-04-27T21:26:50.119Z,8.80
2018-04-27T21:29:21.239Z,12.53
2018-04-27T21:31:49.599Z,11.93
2018-04-27T21:34:18.014Z,12.97
2018-04-27T21:36:51.030Z,14.70
2018-04-27T21:39:26.652Z,11.87
2018-04-27T21:42:06.700Z,11.33
2018-04-27T21:44:42.431Z,12.07
2018-04-27T21:50:21.263Z,11.00
2018-04-27T21:52:59.180Z,15.40
2018-04-27T21:55:27.568Z,19.40
2018-04-27T21:58:02.292Z,17.20
2018-04-27T22:00:31.439Z,17.73
2018-04-27T22:03:07.096Z,11.80
2018-04-27T22:09:00.687Z,11.27
2018-04-27T22:11:39.256Z,14.30
2018-04-27T22:14:09.873Z,14.50
2018-04-27T22:16:41.569Z,11.77
2018-04-27T22:19:10.761Z,13.40
2018-04-27T22:21:39.044Z,12.50
2018-04-27T22:24:10.172Z,14.10
2018-04-27T22:26:40.875Z,11.27
2018-04-27T22:29:23.906Z,13.23
2018-04-27T22:32:00.330Z,11.90
2018-04-27T22:34:30.291Z,11.93
2018-04-27T22:36:59.484Z,11.60
2018-04-27T22:42:39.236Z,12.13
2018-04-27T22:45:12.345Z,13.40
2018-04-27T22:47:53.457Z,12.30
2018-04-27T22:50:22.632Z,10.03
2018-04-27T22:52:51.045Z,11.43
2018-04-27T22:55:20.114Z,9.70
2018-04-27T22:58:08.898Z,11.50
2018-04-27T23:00:45.055Z,14.27
2018-04-27T23:03:31.028Z,13.87
2018-04-27T23:05:59.429Z,12.27
2018-04-27T23:08:28.817Z,13.43
2018-04-27T23:11:10.271Z,10.50
2018-04-27T23:13:53.309Z,11.77
2018-04-27T23:16:24.631Z,12.10
2018-04-27T23:18:53.022Z,10.57
2018-04-27T23:24:27.178Z,8.23
2018-04-27T23:27:05.433Z,10.93
2018-04-27T23:29:34.552Z,9.57
2018-04-27T23:32:03.337Z,10.67
2018-04-27T23:34:31.823Z,9.47
2018-04-27T23:37:00.266Z,12.17
2018-04-27T23:39:29.633Z,14.13
2018-04-27T23:41:59.009Z,11.70
2018-04-27T23:44:28.512Z,15.73
2018-04-27T23:46:57.120Z,13.10
2018-04-27T23:49:25.578Z,15.63
2018-04-27T23:51:54.897Z,16.30
2018-04-27T23:54:23.319Z,13.83
2018-04-27T23:56:52.433Z,14.87
2018-04-27T23:59:21.508Z,16.17
